메인 페이지
METAR-TAF:

METAR-TAF

공항 :

Kimble County Airport

Junction, 텍사스, 미국

위도: 30-30-39N, 경도: 099-45-59W, 고도: 527m

현재 날씨관측

예보는 15분 전, 23:51시(UTC)에 발표되었습니다.
동남동6kt
온도 35°C
습도 39%
기압 1013 hPa
시정: 16.1km
고도 7000ft 상공 구름 보통

METAR: KJCT 132351Z AUTO 11006KT 10SM SCT070 35/19 A2991 RMK AO2 SLP089 T03500194 10356 20317 56011

시각: 19:06 (00:06 UTC)

예보

예보는 46분 전, 23:20시(UTC)에 발표되었습니다.
예보 대상 시간: 14일 00시부터 14일 24시까지 (UTC)
동남동8kt
시정: 10km
고도 7000ft 상공 구름 보통
14일 0500시부터 (UTC)
3kt
시정: 10km
맑음
14일 1800시부터 (UTC)
동남동8kt
시정: 10km
고도 7000ft 상공 구름 보통

TAF: KJCT 132320Z 1400/1424 12008KT P6SM SCT070 FM140500 09003KT P6SM SKC FM141800 12008KT P6SM SCT070

4,000개 이상의 공항 관측 자료 및 예보 (METAR 및 TAF 보고).

지도상에서 검색 가능한 기상관측소가 노란 점과 빨간 점으로 표시되어 있습니다.

기상관측소 명을 보려면 표시 위로 마우스를 이동하세요.

날씨 관측과 예보를 보려면 클릭하세요.

지도 변경 : 확대하려면 엑스 표시가 있는 녹색 버튼, 축소하려면 빼기 표시가 있는 녹색 버튼, 다음 페이지의 지도를 보려면 녹색 화살표를 클릭하세요.


METAR-TAF: